Time;durP1;ratioP1;P1;durP2;ratioP2;P2;SDS_P1;SDS_P2;PMS_P1;PMS_P2;Temp;Humidity;BMP_temperature;BMP_pressure;BME280_temperature;BME280_humidity;BME280_pressure;Samples;Min_cycle;Max_cycle;Signal;HPM_P1;HPM_P2
2022/03/03 00:01:53;;;;;;;;;;;;;;;21.02;43.94;101459.69;7281329;19;153197;-52
2022/03/03 00:04:20;;;;;;;;;;;;;;;20.98;44.01;101459.44;7279766;19;154171;-53
2022/03/03 00:06:46;;;;;;;;;;;;;;;20.97;44.44;101462.53;7281717;19;152507;-53
2022/03/03 00:09:13;;;;;;;;;;;;;;;20.95;44.14;101451.59;7283805;19;153178;-51
2022/03/03 00:11:40;;;;;;;;;;;;;;;20.94;43.94;101451.91;7280591;19;153381;-53
2022/03/03 00:14:07;;;;;;;;;;;;;;;20.94;44.18;101451.91;7280888;19;151738;-52
2022/03/03 00:16:33;;;;;;;;;;;;;;;20.93;44.38;101436.19;7285238;19;153616;-53
2022/03/03 00:19:00;;;;;;;;;;;;;;;20.90;44.40;101443.22;7283171;19;151485;-53
2022/03/03 00:21:29;;;;;;;;;;;;;;;20.89;44.65;101435.13;7281876;19;152774;-52
2022/03/03 00:24:01;;;;;;;;;;;;;;;20.89;44.35;101435.97;7281604;19;154068;-53
2022/03/03 00:26:28;;;;;;;;;;;;;;;20.85;44.66;101430.06;7281404;19;151725;-53
2022/03/03 00:28:55;;;;;;;;;;;;;;;20.83;44.69;101423.94;7280877;19;153373;-53
2022/03/03 00:31:23;;;;;;;;;;;;;;;20.82;44.38;101424.22;7278349;19;154008;-53
2022/03/03 00:33:50;;;;;;;;;;;;;;;20.81;44.48;101419.75;7283012;19;152038;-52
2022/03/03 00:36:17;;;;;;;;;;;;;;;20.79;44.70;101433.25;7280217;19;153106;-53
2022/03/03 00:38:43;;;;;;;;;;;;;;;20.78;44.30;101434.41;7284938;19;152604;-52
2022/03/03 00:41:10;;;;;;;;;;;;;;;20.75;44.56;101438.66;7282319;19;153020;-52
2022/03/03 00:43:36;;;;;;;;;;;;;;;20.74;44.36;101444.56;7279660;19;153716;-55
2022/03/03 00:46:03;;;;;;;;;;;;;;;20.73;44.80;101428.84;7282136;19;151608;-53
2022/03/03 00:48:30;;;;;;;;;;;;;;;20.70;44.38;101429.44;7281650;19;152837;-53
2022/03/03 00:50:57;;;;;;;;;;;;;;;20.69;44.62;101420.19;7280422;19;154061;-53
2022/03/03 00:53:23;;;;;;;;;;;;;;;20.66;44.91;101415.16;7281694;19;151556;-53
2022/03/03 00:55:50;;;;;;;;;;;;;;;20.67;44.87;101410.38;7279620;19;153630;-53
2022/03/03 00:58:17;;;;;;;;;;;;;;;20.63;44.63;101410.13;7274930;19;154388;-53
2022/03/03 01:00:43;;;;;;;;;;;;;;;20.62;44.77;101411.28;7288450;19;152003;-52
2022/03/03 01:03:10;;;;;;;;;;;;;;;20.59;44.67;101409.03;7277309;19;155461;-53
2022/03/03 01:05:37;;;;;;;;;;;;;;;20.57;44.63;101411.34;7280845;19;152063;-53
2022/03/03 01:08:08;;;;;;;;;;;;;;;20.57;44.99;101405.72;7280223;19;152772;-53
2022/03/03 01:10:35;;;;;;;;;;;;;;;20.55;45.10;101405.16;7280317;19;153409;-53
2022/03/03 01:13:02;;;;;;;;;;;;;;;20.52;44.86;101402.13;7278259;19;152363;-53
2022/03/03 01:15:29;;;;;;;;;;;;;;;20.50;44.73;101413.63;7277531;19;152531;-53
2022/03/03 01:17:56;;;;;;;;;;;;;;;20.47;45.09;101404.97;7277113;19;154844;-53
2022/03/03 01:20:22;;;;;;;;;;;;;;;20.46;45.12;101408.91;7285431;19;151873;-52
2022/03/03 01:22:49;;;;;;;;;;;;;;;20.44;45.29;101403.63;7280370;19;153552;-53
2022/03/03 01:25:16;;;;;;;;;;;;;;;20.43;44.96;101401.94;7279938;19;151814;-53
2022/03/03 01:27:42;;;;;;;;;;;;;;;20.40;45.11;101394.09;7278195;19;152726;-53
2022/03/03 01:30:09;;;;;;;;;;;;;;;20.40;45.04;101394.09;7277717;19;153867;-53
2022/03/03 01:32:36;;;;;;;;;;;;;;;20.40;45.24;101391.28;7279398;19;151849;-53
2022/03/03 01:35:03;;;;;;;;;;;;;;;20.36;45.22;101393.84;7281513;19;153613;-53
2022/03/03 01:37:30;;;;;;;;;;;;;;;20.36;45.71;101388.25;7275878;19;153908;-53
2022/03/03 01:39:57;;;;;;;;;;;;;;;20.34;45.83;101393.34;7280357;19;151513;-52
2022/03/03 01:42:23;;;;;;;;;;;;;;;20.33;45.79;101388.00;7285895;19;152786;-53
2022/03/03 01:44:50;;;;;;;;;;;;;;;20.31;45.96;101381.84;7280318;19;151731;-53
2022/03/03 01:47:19;;;;;;;;;;;;;;;20.29;45.77;101379.31;7279286;19;152666;-53
2022/03/03 01:49:46;;;;;;;;;;;;;;;20.26;45.92;101384.69;7277172;19;153466;-53
2022/03/03 01:52:13;;;;;;;;;;;;;;;20.26;45.59;101373.47;7277261;19;152244;-54
2022/03/03 01:54:43;;;;;;;;;;;;;;;20.24;45.85;101370.09;7275894;19;151663;-53
2022/03/03 01:57:10;;;;;;;;;;;;;;;20.21;46.17;101362.28;7275278;19;153487;-55
2022/03/03 01:59:38;;;;;;;;;;;;;;;20.21;45.92;101356.69;7278017;19;152016;-53
2022/03/03 02:02:06;;;;;;;;;;;;;;;20.18;45.87;101362.88;7277569;19;152872;-53
2022/03/03 02:04:33;;;;;;;;;;;;;;;20.14;45.96;101357.00;7284242;19;154731;-53
2022/03/03 02:07:00;;;;;;;;;;;;;;;20.15;46.40;101357.84;7276449;19;153481;-53
2022/03/03 02:09:26;;;;;;;;;;;;;;;20.13;46.31;101355.34;7278616;19;153532;-53
2022/03/03 02:11:53;;;;;;;;;;;;;;;20.11;46.34;101346.41;7276280;19;151596;-53
2022/03/03 02:14:20;;;;;;;;;;;;;;;20.12;46.22;101339.66;7277850;19;152776;-54
2022/03/03 02:16:47;;;;;;;;;;;;;;;20.10;46.54;101330.69;7277616;19;155485;-53
2022/03/03 02:19:15;;;;;;;;;;;;;;;20.09;46.15;101333.78;7283504;19;151705;-52
2022/03/03 02:21:41;;;;;;;;;;;;;;;20.06;46.50;101326.81;7282904;19;152927;-53
2022/03/03 02:24:08;;;;;;;;;;;;;;;20.04;46.41;101325.41;7282715;19;153462;-52
2022/03/03 02:26:39;;;;;;;;;;;;;;;20.05;46.55;101327.09;7292653;19;151942;-52
2022/03/03 02:29:06;;;;;;;;;;;;;;;20.02;46.64;101330.50;7282728;19;153582;-52
2022/03/03 02:31:32;;;;;;;;;;;;;;;20.03;46.55;101335.81;7283647;19;151638;-52
2022/03/03 02:34:00;;;;;;;;;;;;;;;19.98;46.10;101328.31;7283275;19;155585;-53
2022/03/03 02:36:28;;;;;;;;;;;;;;;19.96;46.61;101336.16;7282484;19;153432;-52
2022/03/03 02:38:57;;;;;;;;;;;;;;;19.94;46.65;101332.00;7282529;19;153518;-53
2022/03/03 02:41:24;;;;;;;;;;;;;;;19.91;46.61;101319.38;7283403;19;152877;-54
2022/03/03 02:43:51;;;;;;;;;;;;;;;19.90;46.39;101328.06;7280838;19;153409;-53
2022/03/03 02:46:17;;;;;;;;;;;;;;;19.87;46.54;101334.28;7284746;19;151933;-53
2022/03/03 02:48:44;;;;;;;;;;;;;;;19.85;46.58;101326.16;7290774;19;153316;-52
2022/03/03 02:51:11;;;;;;;;;;;;;;;19.84;46.13;101321.69;7283010;19;151750;-52
2022/03/03 02:53:37;;;;;;;;;;;;;;;19.82;46.75;101321.16;7285651;19;153130;-53
2022/03/03 02:56:04;;;;;;;;;;;;;;;19.81;46.46;101310.22;7284243;19;153395;-53
2022/03/03 02:58:31;;;;;;;;;;;;;;;19.79;46.28;101304.91;7280273;19;152048;-53
2022/03/03 03:00:59;;;;;;;;;;;;;;;19.77;46.35;101304.38;7283447;19;153422;-52
2022/03/03 03:03:26;;;;;;;;;;;;;;;19.77;46.64;101303.53;7280447;19;155205;-53
2022/03/03 03:05:52;;;;;;;;;;;;;;;19.74;46.47;101301.31;7284987;19;151796;-53
2022/03/03 03:08:19;;;;;;;;;;;;;;;19.73;46.71;101286.47;7282693;19;153151;-53
2022/03/03 03:10:46;;;;;;;;;;;;;;;19.72;46.50;101290.38;7291343;19;153399;-53
2022/03/03 03:13:14;;;;;;;;;;;;;;;19.71;46.47;101285.09;7282284;19;152868;-53
2022/03/03 03:15:43;;;;;;;;;;;;;;;19.69;46.37;101282.59;7283460;19;154252;-54
2022/03/03 03:18:10;;;;;;;;;;;;;;;19.69;46.39;101279.78;7279888;19;151778;-53
2022/03/03 03:20:37;;;;;;;;;;;;;;;19.68;46.79;101275.28;7282508;19;153621;-53
2022/03/03 03:23:05;;;;;;;;;;;;;;;19.66;46.59;101274.78;7280318;19;153529;-52
2022/03/03 03:25:32;;;;;;;;;;;;;;;19.66;46.45;101279.53;7284545;19;151808;-52
2022/03/03 03:27:59;;;;;;;;;;;;;;;19.64;46.77;101276.19;7280695;19;152744;-53
2022/03/03 03:30:25;;;;;;;;;;;;;;;19.62;46.45;101270.06;7290254;19;151973;-53
2022/03/03 03:32:52;;;;;;;;;;;;;;;19.61;46.73;101259.97;7283951;19;153553;-52
2022/03/03 03:35:19;;;;;;;;;;;;;;;19.59;46.73;101254.63;7281192;19;154029;-53
2022/03/03 03:37:45;;;;;;;;;;;;;;;19.58;46.50;101257.75;7281927;19;152117;-52
2022/03/03 03:40:12;;;;;;;;;;;;;;;19.57;46.99;101254.13;7284493;19;154057;-54
2022/03/03 03:42:40;;;;;;;;;;;;;;;19.56;46.81;101255.25;7280155;19;153219;-53
2022/03/03 03:45:07;;;;;;;;;;;;;;;19.54;46.68;101252.72;7281756;19;152536;-53
2022/03/03 03:47:33;;;;;;;;;;;;;;;19.51;46.80;101246.88;7280460;19;152749;-53
2022/03/03 03:50:02;;;;;;;;;;;;;;;19.52;46.86;101246.59;7279548;19;153413;-52
2022/03/03 03:52:29;;;;;;;;;;;;;;;19.50;46.40;101250.78;7288973;19;151859;-53
2022/03/03 03:54:56;;;;;;;;;;;;;;;19.49;46.79;101240.72;7279878;19;153813;-53
2022/03/03 03:57:23;;;;;;;;;;;;;;;19.50;46.42;101233.97;7283327;19;151816;-54
2022/03/03 03:59:49;;;;;;;;;;;;;;;19.46;46.66;101227.31;7281666;19;152611;-53
2022/03/03 04:02:16;;;;;;;;;;;;;;;19.47;46.68;101231.78;7279048;19;153394;-52
2022/03/03 04:04:43;;;;;;;;;;;;;;;19.44;46.58;101227.59;7282770;19;151802;-53
2022/03/03 04:07:10;;;;;;;;;;;;;;;19.43;46.95;101225.06;7280408;19;152837;-53
2022/03/03 04:09:37;;;;;;;;;;;;;;;19.40;46.69;101226.47;7279835;19;154427;-54
2022/03/03 04:12:04;;;;;;;;;;;;;;;19.43;46.84;101222.25;7280689;19;151600;-54
2022/03/03 04:14:30;;;;;;;;;;;;;;;19.43;46.85;101222.25;7289594;19;153941;-53
2022/03/03 04:16:57;;;;;;;;;;;;;;;19.40;46.88;101215.25;7283122;19;152230;-53
2022/03/03 04:19:24;;;;;;;;;;;;;;;19.39;47.03;101216.41;7279163;19;152641;-52
2022/03/03 04:21:51;;;;;;;;;;;;;;;19.37;46.65;101221.47;7279739;19;154142;-53
2022/03/03 04:24:18;;;;;;;;;;;;;;;19.37;47.06;101217.81;7282501;19;151880;-54
2022/03/03 04:26:44;;;;;;;;;;;;;;;19.34;46.93;101218.41;7280830;19;152640;-53
2022/03/03 04:29:11;;;;;;;;;;;;;;;19.33;47.04;101220.38;7280004;19;153768;-53
2022/03/03 04:31:38;;;;;;;;;;;;;;;19.33;46.97;101225.16;7283055;19;151864;-53
2022/03/03 04:34:04;;;;;;;;;;;;;;;19.30;46.74;101214.53;7279437;19;153627;-52
2022/03/03 04:36:31;;;;;;;;;;;;;;;19.28;46.92;101223.22;7288673;19;153272;-53
2022/03/03 04:38:58;;;;;;;;;;;;;;;19.26;46.67;101219.88;7281323;19;153166;-54
2022/03/03 04:41:25;;;;;;;;;;;;;;;19.26;46.98;101221.88;7275502;19;153398;-53
2022/03/03 04:43:51;;;;;;;;;;;;;;;19.26;47.01;101219.88;7280101;19;151968;-54
2022/03/03 04:46:18;;;;;;;;;;;;;;;19.22;46.92;101216.00;7281049;19;152838;-53
2022/03/03 04:48:45;;;;;;;;;;;;;;;19.23;47.22;101214.88;7278928;19;154270;-54
2022/03/03 04:51:11;;;;;;;;;;;;;;;19.21;47.02;101214.34;7279395;19;151739;-55
2022/03/03 04:53:38;;;;;;;;;;;;;;;19.21;46.97;101217.13;7280026;19;152988;-54
2022/03/03 04:56:05;;;;;;;;;;;;;;;19.20;47.11;101217.41;7279109;19;154200;-52
2022/03/03 04:58:31;;;;;;;;;;;;;;;19.23;46.96;101222.44;7288804;19;151811;-53
2022/03/03 05:00:58;;;;;;;;;;;;;;;19.28;47.18;101213.97;7280691;19;153381;-54
2022/03/03 05:03:25;;;;;;;;;;;;;;;19.34;47.44;101216.47;7282638;19;151890;-52
2022/03/03 05:05:51;;;;;;;;;;;;;;;19.37;47.79;101206.63;7281631;19;154341;-53
2022/03/03 05:08:18;;;;;;;;;;;;;;;19.41;48.01;101207.69;7281037;19;155653;-53
2022/03/03 05:10:45;;;;;;;;;;;;;;;19.45;48.16;101211.59;7279717;19;151529;-52
2022/03/03 05:13:11;;;;;;;;;;;;;;;19.50;47.93;101204.00;7279254;19;154037;-53
2022/03/03 05:15:38;;;;;;;;;;;;;;;19.56;47.97;101217.97;7279709;19;153809;-52
2022/03/03 05:18:05;;;;;;;;;;;;;;;19.60;48.27;101213.44;7279633;19;151970;-52
2022/03/03 05:20:31;;;;;;;;;;;;;;;19.67;48.24;101219.53;7288339;19;152778;-53
2022/03/03 05:22:58;;;;;;;;;;;;;;;19.73;48.22;101223.94;7280841;19;151577;-53
2022/03/03 05:25:25;;;;;;;;;;;;;;;19.78;48.46;101219.13;7281763;19;152568;-53
2022/03/03 05:27:51;;;;;;;;;;;;;;;19.85;48.22;101213.19;7279464;19;154235;-53
2022/03/03 05:30:18;;;;;;;;;;;;;;;19.90;47.87;101213.94;7278572;19;151761;-53
2022/03/03 05:32:47;;;;;;;;;;;;;;;19.97;48.37;101214.44;7280434;19;153440;-52
2022/03/03 05:35:14;;;;;;;;;;;;;;;20.04;48.25;101213.22;7279692;19;153938;-53
2022/03/03 05:37:41;;;;;;;;;;;;;;;20.10;47.97;101218.47;7280215;19;151869;-52
2022/03/03 05:40:08;;;;;;;;;;;;;;;20.17;48.03;101209.72;7284727;19;153084;-52
2022/03/03 05:42:36;;;;;;;;;;;;;;;20.22;47.90;101224.50;7279747;19;151871;-53
2022/03/03 05:45:04;;;;;;;;;;;;;;;20.30;47.75;101217.44;7280419;19;152673;-53
2022/03/03 05:47:30;;;;;;;;;;;;;;;20.35;47.52;101208.97;7280034;19;153420;-53
2022/03/03 05:49:57;;;;;;;;;;;;;;;20.41;47.52;101210.53;7280471;19;151793;-53
2022/03/03 05:52:24;;;;;;;;;;;;;;;20.48;47.11;101213.00;7282879;19;154599;-54
2022/03/03 05:54:52;;;;;;;;;;;;;;;20.53;47.73;101207.31;7284298;19;153919;-55
2022/03/03 05:57:21;;;;;;;;;;;;;;;20.58;47.41;101208.03;7284957;19;151590;-55
2022/03/03 05:59:50;;;;;;;;;;;;;;;20.65;47.08;101208.53;7284725;19;153689;-55
2022/03/03 06:02:19;;;;;;;;;;;;;;;20.70;46.90;101205.63;7291230;19;153405;-55
2022/03/03 06:04:48;;;;;;;;;;;;;;;20.76;46.46;101207.22;7285957;19;153342;-54
2022/03/03 06:07:19;;;;;;;;;;;;;;;20.82;46.71;101207.97;7285423;19;154057;-54
2022/03/03 06:09:50;;;;;;;;;;;;;;;20.89;46.21;101213.22;7285793;19;152226;-55
2022/03/03 06:12:19;;;;;;;;;;;;;;;20.93;46.37;101206.69;7284215;19;153183;-55
2022/03/03 06:14:51;;;;;;;;;;;;;;;20.98;46.01;101205.78;7285092;19;153773;-54
2022/03/03 06:17:19;;;;;;;;;;;;;;;21.03;45.75;101208.50;7284930;19;151551;-54
2022/03/03 06:19:52;;;;;;;;;;;;;;;21.08;45.94;101206.44;7284073;19;153356;-54
2022/03/03 06:22:19;;;;;;;;;;;;;;;21.13;45.55;101209.19;7282408;19;152345;-55
2022/03/03 06:24:47;;;;;;;;;;;;;;;21.19;45.37;101209.94;7293543;19;151939;-54
2022/03/03 06:27:14;;;;;;;;;;;;;;;21.23;45.78;101206.22;7283335;19;154319;-55
2022/03/03 06:29:40;;;;;;;;;;;;;;;21.28;45.22;101211.75;7283560;19;151861;-55
2022/03/03 06:32:07;;;;;;;;;;;;;;;21.32;45.36;101206.34;7285071;19;154036;-54
2022/03/03 06:34:34;;;;;;;;;;;;;;;21.37;45.45;101209.06;7283006;19;153791;-54
2022/03/03 06:37:00;;;;;;;;;;;;;;;21.42;44.91;101214.63;7285546;19;151958;-55
2022/03/03 06:39:27;;;;;;;;;;;;;;;21.46;45.05;101212.84;7283831;19;153471;-54
2022/03/03 06:41:54;;;;;;;;;;;;;;;21.50;45.19;101213.06;7284259;19;154542;-54
2022/03/03 06:44:21;;;;;;;;;;;;;;;21.53;45.32;101221.69;7283043;19;152170;-54
2022/03/03 06:46:48;;;;;;;;;;;;;;;21.58;44.73;101212.34;7288769;19;153304;-54
2022/03/03 06:49:15;;;;;;;;;;;;;;;21.62;44.63;101211.41;7284992;19;151734;-54
2022/03/03 06:51:43;;;;;;;;;;;;;;;21.66;44.86;101217.28;7284269;19;152241;-54
2022/03/03 06:54:12;;;;;;;;;;;;;;;21.69;44.73;101227.91;7281517;19;153224;-54
2022/03/03 06:56:49;;;;;;;;;;;;;;;21.73;44.78;101218.53;7284454;19;151746;-55
2022/03/03 06:59:17;;;;;;;;;;;;;;;21.77;44.50;101220.72;7283808;19;152750;-54
2022/03/03 07:01:46;;;;;;;;;;;;;;;21.80;44.74;101215.31;7280806;19;154090;-54
2022/03/03 07:04:14;;;;;;;;;;;;;;;21.84;44.58;101216.38;7280891;19;151704;-54
2022/03/03 07:06:41;;;;;;;;;;;;;;;21.89;44.46;101226.69;7283712;19;155828;-55
2022/03/03 07:09:08;;;;;;;;;;;;;;;21.92;44.23;101214.81;7289074;19;153005;-55
2022/03/03 07:11:39;;;;;;;;;;;;;;;21.95;44.65;101222.66;7282863;19;153376;-55
2022/03/03 07:14:06;;;;;;;;;;;;;;;22.00;44.16;101211.28;7281174;19;153909;-54
2022/03/03 07:16:43;;;;;;;;;;;;;;;22.02;44.25;101209.00;7281393;19;151977;-54
2022/03/03 07:19:21;;;;;;;;;;;;;;;22.06;44.36;101198.78;7283421;19;153566;-54
2022/03/03 07:21:54;;;;;;;;;;;;;;;22.10;44.16;101194.22;7278962;19;152386;-54
2022/03/03 07:24:28;;;;;;;;;;;;;;;22.12;44.06;101191.94;7281809;19;151737;-54
2022/03/03 07:26:57;;;;;;;;;;;;;;;22.14;43.80;101192.44;7281410;19;153185;-54
2022/03/03 07:29:25;;;;;;;;;;;;;;;22.15;43.61;101192.13;7283116;19;154011;-55
2022/03/03 07:31:55;;;;;;;;;;;;;;;22.17;43.23;101189.81;7288282;19;151789;-55
2022/03/03 07:34:32;;;;;;;;;;;;;;;22.17;43.63;101187.00;7280949;19;154334;-54
2022/03/03 07:37:04;;;;;;;;;;;;;;;22.15;43.33;101192.13;7283330;19;151647;-55
2022/03/03 07:39:37;;;;;;;;;;;;;;;21.78;41.15;101194.25;7281441;19;152894;-54
2022/03/03 07:42:04;;;;;;;;;;;;;;;21.89;40.32;101188.13;7280093;19;156021;-54
2022/03/03 07:44:31;;;;;;;;;;;;;;;21.90;40.26;101194.56;7281880;19;151689;-54
2022/03/03 07:46:59;;;;;;;;;;;;;;;21.88;40.28;101192.09;7280317;19;153630;-55
2022/03/03 07:49:26;;;;;;;;;;;;;;;21.87;40.71;101190.41;7282251;19;154113;-55
2022/03/03 07:51:52;;;;;;;;;;;;;;;21.87;40.64;101193.22;7287190;19;152015;-55
2022/03/03 07:54:19;;;;;;;;;;;;;;;21.84;40.80;101195.84;7281770;19;152320;-54
2022/03/03 07:56:48;;;;;;;;;;;;;;;21.82;40.29;101195.31;7280842;19;151811;-55
2022/03/03 07:59:17;;;;;;;;;;;;;;;21.79;40.71;101201.56;7282299;19;152791;-54
2022/03/03 08:01:44;;;;;;;;;;;;;;;21.77;40.71;101201.03;7279638;19;153421;-54
2022/03/03 08:04:14;;;;;;;;;;;;;;;21.76;40.71;101207.81;7281723;19;151742;-55
2022/03/03 08:06:42;;;;;;;;;;;;;;;21.73;40.23;101203.63;7280174;19;152806;-55
2022/03/03 08:09:09;;;;;;;;;;;;;;;21.71;40.62;101220.81;7282491;19;153874;-55
2022/03/03 08:11:39;;;;;;;;;;;;;;;21.65;40.40;101224.88;7282127;19;151705;-54
2022/03/03 08:14:06;;;;;;;;;;;;;;;21.67;40.70;101222.56;7287809;19;152584;-55
2022/03/03 08:16:34;;;;;;;;;;;;;;;21.65;40.55;101229.66;7278359;19;151783;-56
2022/03/03 08:19:02;;;;;;;;;;;;;;;21.65;40.69;101233.31;7278869;19;152979;-54
2022/03/03 08:21:30;;;;;;;;;;;;;;;21.65;40.71;101229.66;7279797;19;154054;-53
2022/03/03 08:24:00;;;;;;;;;;;;;;;21.58;41.03;101227.25;7279244;19;151951;-54
2022/03/03 08:26:28;;;;;;;;;;;;;;;21.53;40.93;101237.78;7282542;19;153555;-53
2022/03/03 08:28:55;;;;;;;;;;;;;;;21.54;40.99;101228.16;7281928;19;153288;-53
2022/03/03 08:31:28;;;;;;;;;;;;;;;21.54;40.90;101233.78;7279864;19;151711;-59
2022/03/03 08:34:01;;;;;;;;;;;;;;;21.56;40.95;101237.13;7282983;19;153167;-53
2022/03/03 08:36:33;;;;;;;;;;;;;;;21.50;41.28;101236.38;7285743;19;153567;-53
2022/03/03 08:39:09;;;;;;;;;;;;;;;21.46;40.95;101234.50;7282517;19;153726;-52
2022/03/03 08:41:41;;;;;;;;;;;;;;;21.40;41.05;101232.91;7277644;19;155808;-53
2022/03/03 08:44:09;;;;;;;;;;;;;;;21.36;41.08;101232.69;7280723;19;151674;-53
2022/03/03 08:46:37;;;;;;;;;;;;;;;21.35;40.72;101239.44;7282043;19;153886;-53
2022/03/03 08:49:09;;;;;;;;;;;;;;;21.32;40.53;101248.50;7280748;19;154002;-53
2022/03/03 08:51:46;;;;;;;;;;;;;;;21.29;40.65;101238.72;7277346;19;152799;-53
2022/03/03 08:54:13;;;;;;;;;;;;;;;21.29;40.40;101249.13;7267980;19;153530;-53
2022/03/03 08:56:45;;;;;;;;;;;;;;;21.25;40.63;101246.09;7268783;19;155595;-53
2022/03/03 08:59:12;;;;;;;;;;;;;;;21.23;40.61;101236.28;7282518;19;152159;-53
2022/03/03 09:01:38;;;;;;;;;;;;;;;21.20;40.45;101234.09;7280614;19;153254;-53
2022/03/03 09:04:06;;;;;;;;;;;;;;;21.18;40.84;101239.19;7280206;19;151503;-53
2022/03/03 09:06:33;;;;;;;;;;;;;;;21.13;40.67;101244.88;7281830;19;153618;-53
2022/03/03 09:09:00;;;;;;;;;;;;;;;21.10;40.76;101243.50;7279459;19;153412;-53
2022/03/03 09:11:27;;;;;;;;;;;;;;;21.05;40.98;101245.56;7281294;19;151501;-52
2022/03/03 09:13:53;;;;;;;;;;;;;;;21.01;40.90;101233.25;7281168;19;153321;-53
2022/03/03 09:16:21;;;;;;;;;;;;;;;20.98;41.16;101239.50;7277044;19;152091;-54
2022/03/03 09:18:48;;;;;;;;;;;;;;;20.95;40.73;101246.53;7280573;19;151862;-53
2022/03/03 09:21:15;;;;;;;;;;;;;;;20.91;40.80;101239.84;7285069;19;152787;-53
2022/03/03 09:23:42;;;;;;;;;;;;;;;20.86;40.96;101239.94;7280377;19;152051;-53
2022/03/03 09:26:09;;;;;;;;;;;;;;;20.84;41.05;101245.03;7279410;19;151575;-53
2022/03/03 09:28:36;;;;;;;;;;;;;;;20.81;41.40;101243.66;7285429;19;152203;-53
2022/03/03 09:31:03;;;;;;;;;;;;;;;20.75;41.34;101242.06;7286888;19;151893;-53
2022/03/03 09:33:30;;;;;;;;;;;;;;;20.73;41.16;101247.16;7287499;19;153486;-53
2022/03/03 09:36:00;;;;;;;;;;;;;;;20.69;41.30;101237.66;7284813;19;154316;-53
2022/03/03 09:38:29;;;;;;;;;;;;;;;20.66;41.49;101241.09;7285527;19;152079;-53
2022/03/03 09:40:56;;;;;;;;;;;;;;;20.65;41.26;101241.38;7284569;19;152750;-53
2022/03/03 09:43:22;;;;;;;;;;;;;;;20.60;41.69;101239.47;7292008;19;152034;-53
2022/03/03 09:45:49;;;;;;;;;;;;;;;20.57;41.60;101230.81;7286889;19;153417;-53
2022/03/03 09:48:21;;;;;;;;;;;;;;;20.54;41.60;101234.22;7284818;19;153449;-54
2022/03/03 09:50:57;;;;;;;;;;;;;;;20.53;41.37;101226.97;7284199;19;152206;-53
2022/03/03 09:53:23;;;;;;;;;;;;;;;20.48;41.51;101225.06;7283998;19;152060;-53
2022/03/03 09:55:50;;;;;;;;;;;;;;;20.48;41.76;101238.25;7284828;19;153950;-53
2022/03/03 09:58:17;;;;;;;;;;;;;;;20.44;41.86;101235.22;7274558;19;151833;-53
2022/03/03 10:00:44;;;;;;;;;;;;;;;20.43;41.76;101236.34;7283509;19;152645;-53
2022/03/03 10:03:13;;;;;;;;;;;;;;;20.41;41.73;101244.22;7288893;19;153596;-53
2022/03/03 10:05:45;;;;;;;;;;;;;;;20.40;41.63;101234.13;7284721;19;153210;-53
2022/03/03 10:08:13;;;;;;;;;;;;;;;20.38;42.01;101237.25;7280983;19;153654;-53
2022/03/03 10:10:41;;;;;;;;;;;;;;;20.42;41.93;101226.25;7286710;19;151839;-53
2022/03/03 10:13:09;;;;;;;;;;;;;;;20.47;42.12;101229.00;7283907;19;153420;-52
2022/03/03 10:15:36;;;;;;;;;;;;;;;20.53;42.08;101236.22;7282623;19;153211;-53
2022/03/03 10:18:04;;;;;;;;;;;;;;;20.56;41.77;101226.34;7284855;19;151752;-53
2022/03/03 10:20:36;;;;;;;;;;;;;;;20.62;41.84;101225.97;7282208;19;152227;-53
2022/03/03 10:23:06;;;;;;;;;;;;;;;20.68;42.01;101221.94;7281786;19;153798;-53
2022/03/03 10:25:34;;;;;;;;;;;;;;;20.72;41.79;101220.19;7292719;19;151606;-53
2022/03/03 10:28:08;;;;;;;;;;;;;;;20.74;41.76;101222.72;7284172;19;153933;-53
2022/03/03 10:30:45;;;;;;;;;;;;;;;20.81;41.56;101218.38;7282704;19;151582;-53
2022/03/03 10:33:16;;;;;;;;;;;;;;;20.87;41.45;101213.53;7285767;19;152970;-53
2022/03/03 10:35:56;;;;;;;;;;;;;;;20.92;41.73;101202.22;7284305;19;152636;-53
2022/03/03 10:38:23;;;;;;;;;;;;;;;20.97;41.63;101199.31;7282030;19;151972;-53
2022/03/03 10:40:50;;;;;;;;;;;;;;;20.99;41.87;101205.47;7282122;19;153289;-53
2022/03/03 10:43:17;;;;;;;;;;;;;;;21.03;41.58;101197.28;7283455;19;153494;-53
2022/03/03 10:46:00;;;;;;;;;;;;;;;21.07;41.58;101196.34;7283059;19;151825;-53
2022/03/03 10:48:30;;;;;;;;;;;;;;;21.08;41.48;101198.00;7291365;19;152815;-52
2022/03/03 10:51:00;;;;;;;;;;;;;;;21.12;41.82;101206.69;7282770;19;151991;-53
2022/03/03 10:53:27;;;;;;;;;;;;;;;21.15;41.33;101208.91;7283547;19;152869;-53
2022/03/03 10:56:04;;;;;;;;;;;;;;;21.18;41.25;101216.69;7281787;19;153492;-53
2022/03/03 10:58:41;;;;;;;;;;;;;;;21.19;41.74;101212.75;7279660;19;151922;-53
2022/03/03 11:01:08;;;;;;;;;;;;;;;21.22;41.62;101212.97;7280693;19;152850;-53
2022/03/03 11:03:35;;;;;;;;;;;;;;;21.22;41.44;101212.97;7280997;19;155175;-53
2022/03/03 11:06:03;;;;;;;;;;;;;;;21.25;41.30;101208.72;7283652;19;152349;-53
2022/03/03 11:08:31;;;;;;;;;;;;;;;21.26;41.57;101214.03;7284989;19;152742;-53
2022/03/03 11:10:58;;;;;;;;;;;;;;;21.30;41.63;101211.47;7290527;19;152155;-54
2022/03/03 11:13:25;;;;;;;;;;;;;;;21.32;41.46;101214.78;7284896;19;152637;-53
2022/03/03 11:15:52;;;;;;;;;;;;;;;21.33;41.49;101210.84;7282754;19;153531;-53
2022/03/03 11:18:20;;;;;;;;;;;;;;;21.34;41.11;101208.88;7282393;19;151707;-53
2022/03/03 11:20:46;;;;;;;;;;;;;;;21.35;41.31;101216.97;7280844;19;152196;-53
2022/03/03 11:23:13;;;;;;;;;;;;;;;21.38;41.12;101213.56;7281476;19;153442;-53
2022/03/03 11:25:41;;;;;;;;;;;;;;;21.38;41.56;101221.16;7284880;19;151546;-53
2022/03/03 11:28:09;;;;;;;;;;;;;;;21.37;41.47;101214.69;7281966;19;152640;-53
2022/03/03 11:30:36;;;;;;;;;;;;;;;21.37;41.30;101213.84;7282118;19;153241;-53
2022/03/03 11:33:12;;;;;;;;;;;;;;;21.36;41.12;101220.63;7289826;19;151953;-54
2022/03/03 11:35:48;;;;;;;;;;;;;;;21.35;41.55;101216.16;7276009;19;153451;-53
2022/03/03 11:38:16;;;;;;;;;;;;;;;21.34;41.21;101220.94;7282107;19;151679;-53
2022/03/03 11:40:51;;;;;;;;;;;;;;;21.33;41.23;101219.28;7281209;19;153469;-53
2022/03/03 11:43:18;;;;;;;;;;;;;;;21.34;41.06;101215.31;7280917;19;153939;-53
2022/03/03 11:45:55;;;;;;;;;;;;;;;21.32;41.56;101228.00;7280520;19;152010;-52
2022/03/03 11:48:24;;;;;;;;;;;;;;;21.31;41.40;101221.53;7281382;19;153412;-53
2022/03/03 11:50:52;;;;;;;;;;;;;;;21.29;41.47;101227.50;7280162;19;154086;-53
2022/03/03 11:53:19;;;;;;;;;;;;;;;21.28;41.52;101227.78;7287983;19;152105;-53
2022/03/03 11:55:47;;;;;;;;;;;;;;;21.26;41.73;101221.63;7281790;19;153242;-53
2022/03/03 11:58:14;;;;;;;;;;;;;;;21.23;41.62;101227.88;7280864;19;152047;-53
2022/03/03 12:00:43;;;;;;;;;;;;;;;21.22;41.65;101220.56;7278097;19;153501;-53
2022/03/03 12:03:14;;;;;;;;;;;;;;;21.21;41.37;101222.53;7279812;19;152612;-53
2022/03/03 12:05:42;;;;;;;;;;;;;;;21.22;41.62;101229.00;7283786;19;151781;-53
2022/03/03 12:08:12;;;;;;;;;;;;;;;21.20;41.82;101225.69;7280860;19;153364;-54
2022/03/03 12:10:49;;;;;;;;;;;;;;;21.18;41.61;101222.31;7280327;19;153874;-53
2022/03/03 12:13:26;;;;;;;;;;;;;;;21.16;41.44;101221.81;7280164;19;152221;-53
2022/03/03 12:16:12;;;;;;;;;;;;;;;21.14;41.57;101227.72;7289008;19;152791;-53
2022/03/03 12:18:39;;;;;;;;;;;;;;;21.10;41.99;101226.63;7282247;19;152186;-54
2022/03/03 12:21:16;;;;;;;;;;;;;;;21.07;41.67;101232.03;7281392;19;152609;-52
2022/03/03 12:23:42;;;;;;;;;;;;;;;21.08;42.11;101225.25;7279702;19;152410;-53
2022/03/03 12:26:10;;;;;;;;;;;;;;;21.06;41.82;101225.59;7282700;19;151754;-54
2022/03/03 12:28:43;;;;;;;;;;;;;;;21.05;42.07;101223.06;7282801;19;153274;-53
2022/03/03 12:31:20;;;;;;;;;;;;;;;21.03;41.75;101225.38;7281710;19;153627;-53
2022/03/03 12:34:06;;;;;;;;;;;;;;;20.99;42.20;101218.66;7282942;19;153493;-53